Time;durP1;ratioP1;P1;durP2;ratioP2;P2;SDS_P1;SDS_P2;PMS_P1;PMS_P2;Temp;Humidity;BMP_temperature;BMP_pressure;BME280_temperature;BME280_humidity;BME280_pressure;Samples;Min_cycle;Max_cycle;Signal;HPM_P1;HPM_P2
2024/02/06 00:00:47;;;;;;;6.00;4.80;;;10.50;99.90;;;;;;4992480;28;20167;-67
2024/02/06 00:03:12;;;;;;;7.37;5.33;;;10.50;99.90;;;;;;4993654;28;20417;-67
2024/02/06 00:05:38;;;;;;;6.30;5.40;;;10.50;99.90;;;;;;4992500;28;20626;-67
2024/02/06 00:08:04;;;;;;;7.07;6.37;;;10.60;99.90;;;;;;4991422;28;20563;-67
2024/02/06 00:10:30;;;;;;;6.50;5.20;;;10.70;99.90;;;;;;4992496;28;20187;-66
2024/02/06 00:12:56;;;;;;;5.77;5.27;;;10.70;99.90;;;;;;4992342;28;20501;-67
2024/02/06 00:15:21;;;;;;;6.03;5.53;;;10.80;99.90;;;;;;4992516;28;20257;-68
2024/02/06 00:17:47;;;;;;;6.73;6.00;;;10.70;99.90;;;;;;4992084;28;20251;-67
2024/02/06 00:20:13;;;;;;;5.33;4.83;;;10.60;99.90;;;;;;4992985;28;20179;-67
2024/02/06 00:22:38;;;;;;;6.17;4.80;;;10.70;99.90;;;;;;4992123;28;20182;-67
2024/02/06 00:25:06;;;;;;;6.80;5.27;;;10.70;99.90;;;;;;4992818;28;20178;-67
2024/02/06 00:27:32;;;;;;;6.43;5.20;;;10.70;99.90;;;;;;4992004;28;20693;-66
2024/02/06 00:29:57;;;;;;;7.63;4.90;;;10.60;99.90;;;;;;4993074;28;20496;-67
2024/02/06 00:32:23;;;;;;;6.37;5.13;;;10.50;99.90;;;;;;4993057;28;20233;-68
2024/02/06 00:34:49;;;;;;;7.40;5.47;;;10.60;99.90;;;;;;4991930;28;20206;-68
2024/02/06 00:37:17;;;;;;;8.60;5.10;;;10.60;99.90;;;;;;4992994;28;20183;-68
2024/02/06 00:39:42;;;;;;;6.50;5.90;;;10.70;99.90;;;;;;4991813;28;20175;-68
2024/02/06 00:42:09;;;;;;;11.00;5.63;;;10.80;99.90;;;;;;4992565;28;20456;-68
2024/02/06 00:44:35;;;;;;;6.50;5.60;;;10.70;99.90;;;;;;4990868;28;20543;-67
2024/02/06 00:47:01;;;;;;;6.03;5.27;;;10.70;99.90;;;;;;4992709;28;20480;-69
2024/02/06 00:49:27;;;;;;;7.10;6.57;;;10.70;99.90;;;;;;4992512;28;20183;-70
2024/02/06 00:51:52;;;;;;;6.67;6.13;;;10.70;99.90;;;;;;4991720;28;20234;-70
2024/02/06 00:54:18;;;;;;;8.30;5.87;;;10.70;99.90;;;;;;4975495;28;20172;-70
2024/02/06 00:56:44;;;;;;;9.87;5.97;;;10.80;99.90;;;;;;4991756;28;20239;-69
2024/02/06 00:59:09;;;;;;;5.90;5.27;;;10.80;99.90;;;;;;4992606;28;20185;-67
2024/02/06 01:01:35;;;;;;;6.37;5.57;;;10.70;99.90;;;;;;4974754;28;20698;-70
2024/02/06 01:04:01;;;;;;;6.20;5.13;;;10.70;99.90;;;;;;4992498;28;20185;-70
2024/02/06 01:06:26;;;;;;;6.20;5.60;;;10.80;99.90;;;;;;4992358;28;20199;-69
2024/02/06 01:08:52;;;;;;;7.40;6.70;;;10.80;99.90;;;;;;4991879;28;20207;-73
2024/02/06 01:11:18;;;;;;;6.63;6.03;;;10.90;99.90;;;;;;4992234;28;20191;-73
2024/02/06 01:13:44;;;;;;;8.23;6.30;;;10.90;99.90;;;;;;4991117;28;20650;-73
2024/02/06 01:16:09;;;;;;;6.20;5.70;;;10.90;99.90;;;;;;4991863;28;20176;-73
2024/02/06 01:18:35;;;;;;;9.43;6.10;;;10.80;99.90;;;;;;4990909;28;20216;-73
2024/02/06 01:21:01;;;;;;;6.60;6.10;;;10.90;99.90;;;;;;4974998;28;20234;-72
2024/02/06 01:23:27;;;;;;;8.20;6.13;;;10.90;99.90;;;;;;4992938;28;20174;-73
2024/02/06 01:25:52;;;;;;;7.80;7.10;;;10.90;99.90;;;;;;4994178;28;20238;-73
2024/02/06 01:28:18;;;;;;;6.57;6.07;;;10.80;99.90;;;;;;4995931;28;20682;-73
2024/02/06 01:30:44;;;;;;;7.53;6.90;;;10.90;99.90;;;;;;4995503;28;20538;-73
2024/02/06 01:33:10;;;;;;;7.40;6.60;;;10.90;99.90;;;;;;4995966;28;20685;-73
2024/02/06 01:35:35;;;;;;;6.13;5.73;;;10.80;99.90;;;;;;4995024;28;20181;-72
2024/02/06 01:38:01;;;;;;;8.60;6.10;;;10.80;99.90;;;;;;4996166;28;20180;-73
2024/02/06 01:40:27;;;;;;;7.27;5.90;;;10.80;99.90;;;;;;4995764;28;20176;-73
2024/02/06 01:42:52;;;;;;;6.60;6.07;;;10.90;99.90;;;;;;4994994;28;20616;-73
2024/02/06 01:45:18;;;;;;;6.43;5.80;;;10.90;99.90;;;;;;4978062;28;20188;-72
2024/02/06 01:47:45;;;;;;;7.00;6.03;;;10.90;99.90;;;;;;4977086;28;20218;-72
2024/02/06 01:50:12;;;;;;;6.10;5.50;;;11.00;99.90;;;;;;4995896;28;20407;-72
2024/02/06 01:52:38;;;;;;;8.43;6.67;;;10.90;99.90;;;;;;4994782;28;20427;-72
2024/02/06 01:55:06;;;;;;;9.50;6.00;;;11.00;99.90;;;;;;4995241;28;20936;-73
2024/02/06 01:57:35;;;;;;;9.60;6.23;;;11.00;99.90;;;;;;4995617;28;20461;-70
2024/02/06 02:00:03;;;;;;;6.00;5.40;;;11.00;99.90;;;;;;4995156;28;20467;-73
2024/02/06 02:02:30;;;;;;;6.00;5.10;;;11.10;99.90;;;;;;4995411;28;20926;-72
2024/02/06 02:04:55;;;;;;;7.33;5.17;;;11.10;99.90;;;;;;4994869;28;20401;-72
2024/02/06 02:07:21;;;;;;;6.50;5.90;;;11.10;99.90;;;;;;4995356;28;20455;-73
2024/02/06 02:09:47;;;;;;;6.20;5.70;;;11.10;99.90;;;;;;4994228;28;20183;-73
2024/02/06 02:12:12;;;;;;;6.00;5.50;;;11.10;99.90;;;;;;4995362;28;20423;-73
2024/02/06 02:14:38;;;;;;;6.57;5.80;;;11.10;99.90;;;;;;4994015;28;20238;-72
2024/02/06 02:17:04;;;;;;;6.50;5.83;;;11.10;99.90;;;;;;4974068;28;20230;-72
2024/02/06 02:19:30;;;;;;;5.90;5.10;;;11.10;99.90;;;;;;4976192;28;20932;-73
2024/02/06 02:21:55;;;;;;;6.83;5.00;;;11.10;99.90;;;;;;4989859;28;20186;-73
2024/02/06 02:24:21;;;;;;;6.43;5.47;;;11.10;99.90;;;;;;4975511;28;20183;-72
2024/02/06 02:26:47;;;;;;;8.67;6.60;;;11.00;99.90;;;;;;4974909;28;20203;-73
2024/02/06 02:29:14;;;;;;;7.17;6.10;;;11.00;99.90;;;;;;4975772;28;20179;-73
2024/02/06 02:31:43;;;;;;;9.63;5.23;;;11.10;99.90;;;;;;4989497;28;20427;-73
2024/02/06 02:34:09;;;;;;;7.90;5.07;;;11.00;99.90;;;;;;4975156;28;20914;-73
2024/02/06 02:36:34;;;;;;;7.30;5.13;;;11.10;99.90;;;;;;4974654;28;20523;-67
2024/02/06 02:39:00;;;;;;;5.67;5.20;;;11.20;99.90;;;;;;4974883;28;20428;-73
2024/02/06 02:41:26;;;;;;;7.43;5.03;;;11.10;99.90;;;;;;4975247;28;20330;-72
2024/02/06 02:43:52;;;;;;;9.93;6.03;;;11.10;99.90;;;;;;4973734;28;20233;-72
2024/02/06 02:46:17;;;;;;;12.50;5.70;;;11.20;99.90;;;;;;4974087;28;20443;-73
2024/02/06 02:48:43;;;;;;;9.57;6.20;;;11.20;99.90;;;;;;4973295;28;20195;-73
2024/02/06 02:51:09;;;;;;;5.57;5.10;;;11.20;99.90;;;;;;4974400;28;20183;-74
2024/02/06 02:53:35;;;;;;;5.60;5.10;;;11.20;99.90;;;;;;4975373;28;20673;-71
2024/02/06 02:56:00;;;;;;;9.40;6.10;;;11.30;99.90;;;;;;4989625;28;20186;-73
2024/02/06 02:58:26;;;;;;;6.80;4.83;;;11.30;99.90;;;;;;4972699;28;20208;-73
2024/02/06 03:00:52;;;;;;;8.77;6.87;;;11.20;99.90;;;;;;4971583;28;20173;-73
2024/02/06 03:03:17;;;;;;;5.80;5.20;;;11.30;99.90;;;;;;4975009;28;20165;-73
2024/02/06 03:05:43;;;;;;;7.37;5.70;;;11.20;99.90;;;;;;4974348;28;20229;-73
2024/02/06 03:08:09;;;;;;;6.20;5.70;;;11.20;99.90;;;;;;4974019;28;20560;-73
2024/02/06 03:10:35;;;;;;;6.73;5.43;;;11.20;99.90;;;;;;4974534;28;20271;-73
2024/02/06 03:13:00;;;;;;;10.47;6.73;;;11.20;99.90;;;;;;4973913;28;20184;-74
2024/02/06 03:15:26;;;;;;;5.40;4.90;;;11.30;99.90;;;;;;4974474;28;20211;-75
2024/02/06 03:17:54;;;;;;;5.33;4.90;;;11.20;99.90;;;;;;4984361;28;20223;-73
2024/02/06 03:20:20;;;;;;;6.17;4.93;;;11.30;99.90;;;;;;4993909;28;20181;-74
2024/02/06 03:22:47;;;;;;;6.50;5.40;;;11.20;99.90;;;;;;4993488;28;20420;-74
2024/02/06 03:25:13;;;;;;;10.27;5.50;;;11.20;99.90;;;;;;4993577;28;20526;-74
2024/02/06 03:27:41;;;;;;;6.60;5.33;;;11.20;99.90;;;;;;4993381;28;20538;-67
2024/02/06 03:30:08;;;;;;;5.60;4.83;;;11.20;99.90;;;;;;4994246;28;20184;-74
2024/02/06 03:32:34;;;;;;;5.50;5.00;;;11.30;99.90;;;;;;4991287;28;21098;-71
2024/02/06 03:35:00;;;;;;;7.43;5.03;;;11.20;99.90;;;;;;4992678;28;20422;-74
2024/02/06 03:37:26;;;;;;;6.60;4.37;;;11.20;99.90;;;;;;4993580;28;20415;-74
2024/02/06 03:39:51;;;;;;;7.63;5.37;;;11.30;99.90;;;;;;4993095;28;20411;-73
2024/02/06 03:42:17;;;;;;;5.30;4.90;;;11.30;99.90;;;;;;4993602;28;20177;-73
2024/02/06 03:44:44;;;;;;;5.10;4.70;;;11.30;99.90;;;;;;4992747;28;20260;-71
2024/02/06 03:47:10;;;;;;;8.70;5.73;;;11.30;99.90;;;;;;4991890;28;20489;-74
2024/02/06 03:49:36;;;;;;;9.57;5.77;;;11.40;99.90;;;;;;4993493;28;20785;-74
2024/02/06 03:52:01;;;;;;;6.53;5.43;;;11.30;99.90;;;;;;4992620;28;20210;-73
2024/02/06 03:54:27;;;;;;;8.40;5.53;;;11.20;99.90;;;;;;4992721;28;20183;-73
2024/02/06 03:56:53;;;;;;;5.40;4.90;;;11.30;99.90;;;;;;4991388;28;20185;-73
2024/02/06 03:59:18;;;;;;;7.57;5.10;;;11.30;99.90;;;;;;4993287;28;20265;-73
2024/02/06 04:01:44;;;;;;;7.33;4.80;;;11.20;99.90;;;;;;4991906;28;20179;-72
2024/02/06 04:04:11;;;;;;;5.27;4.83;;;11.20;99.90;;;;;;4993515;28;20178;-74
2024/02/06 04:06:37;;;;;;;6.00;4.77;;;11.30;99.90;;;;;;4993352;28;20195;-73
2024/02/06 04:09:03;;;;;;;5.77;5.07;;;11.30;99.90;;;;;;4992381;28;20514;-73
2024/02/06 04:11:29;;;;;;;6.00;5.40;;;11.40;99.90;;;;;;4992534;28;20198;-73
2024/02/06 04:13:55;;;;;;;11.13;5.00;;;11.40;99.90;;;;;;4992345;28;20420;-73
2024/02/06 04:16:21;;;;;;;6.53;4.50;;;11.30;99.90;;;;;;4992731;28;20908;-73
2024/02/06 04:18:47;;;;;;;5.53;4.73;;;11.40;99.90;;;;;;4992353;28;20487;-72
2024/02/06 04:21:12;;;;;;;5.13;4.70;;;11.40;99.90;;;;;;4993114;28;20213;-73
2024/02/06 04:23:40;;;;;;;6.77;4.87;;;11.40;99.90;;;;;;4993114;28;20205;-73
2024/02/06 04:26:06;;;;;;;5.07;4.63;;;11.40;99.90;;;;;;4992304;28;20477;-72
2024/02/06 04:28:32;;;;;;;7.07;5.23;;;11.40;99.90;;;;;;4992638;28;20467;-73
2024/02/06 04:30:58;;;;;;;7.40;4.60;;;11.40;99.90;;;;;;4991317;28;20433;-72
2024/02/06 04:33:24;;;;;;;9.80;4.70;;;11.40;99.90;;;;;;4991620;28;20526;-72
2024/02/06 04:35:49;;;;;;;5.43;4.13;;;11.40;99.90;;;;;;4991944;28;20744;-72
2024/02/06 04:38:16;;;;;;;7.60;4.80;;;11.40;99.90;;;;;;4992904;28;20239;-73
2024/02/06 04:40:42;;;;;;;5.60;4.70;;;11.40;99.90;;;;;;4992418;28;20184;-67
2024/02/06 04:43:07;;;;;;;6.77;5.23;;;11.40;99.90;;;;;;4992686;28;20415;-73
2024/02/06 04:45:33;;;;;;;4.80;4.40;;;11.40;99.90;;;;;;4992496;28;20224;-71
2024/02/06 04:47:59;;;;;;;5.47;4.33;;;11.40;99.90;;;;;;4991929;28;20663;-74
2024/02/06 04:50:25;;;;;;;8.73;4.70;;;11.30;99.90;;;;;;4992846;28;20183;-73
2024/02/06 04:52:50;;;;;;;5.10;4.27;;;11.30;99.90;;;;;;4991978;28;20429;-73
2024/02/06 04:55:16;;;;;;;5.57;4.57;;;11.40;99.90;;;;;;4992240;28;20541;-73
2024/02/06 04:57:43;;;;;;;6.30;4.10;;;11.40;99.90;;;;;;4992605;28;20180;-68
2024/02/06 05:00:12;;;;;;;6.10;3.97;;;11.50;99.90;;;;;;4995329;28;20424;-73
2024/02/06 05:02:39;;;;;;;6.63;4.30;;;11.50;99.90;;;;;;4978119;28;20439;-73
2024/02/06 05:05:05;;;;;;;6.13;4.20;;;11.50;99.90;;;;;;4977996;28;20941;-75
2024/02/06 05:07:32;;;;;;;5.73;4.33;;;11.50;99.90;;;;;;4996395;28;20454;-74
2024/02/06 05:09:57;;;;;;;5.37;4.30;;;11.50;99.90;;;;;;4978325;28;20415;-73
2024/02/06 05:12:24;;;;;;;4.30;3.90;;;11.50;99.90;;;;;;4996306;28;20853;-73
2024/02/06 05:14:50;;;;;;;8.10;4.80;;;11.50;99.90;;;;;;4995384;28;20635;-73
2024/02/06 05:17:16;;;;;;;8.90;4.37;;;11.50;99.90;;;;;;4996369;28;20500;-73
2024/02/06 05:19:42;;;;;;;7.73;3.80;;;11.60;99.90;;;;;;4996514;28;20471;-73
2024/02/06 05:22:09;;;;;;;6.67;4.90;;;11.60;99.90;;;;;;4995722;28;20277;-73
2024/02/06 05:24:35;;;;;;;5.60;5.10;;;11.60;99.90;;;;;;4996156;28;20431;-73
2024/02/06 05:27:04;;;;;;;8.63;6.20;;;11.60;99.90;;;;;;4995195;28;20549;-73
2024/02/06 05:29:30;;;;;;;10.53;5.10;;;11.50;99.90;;;;;;4995926;28;20603;-73
2024/02/06 05:31:57;;;;;;;6.00;4.70;;;11.50;99.90;;;;;;4994630;28;20441;-73
2024/02/06 05:34:23;;;;;;;7.33;4.77;;;11.40;99.90;;;;;;4977604;28;20496;-73
2024/02/06 05:36:49;;;;;;;6.07;5.40;;;11.30;99.90;;;;;;4995028;28;20418;-67
2024/02/06 05:39:14;;;;;;;8.43;5.90;;;11.30;99.90;;;;;;4978310;28;20423;-73
2024/02/06 05:41:40;;;;;;;5.90;5.27;;;11.30;99.90;;;;;;4994770;28;20184;-73
2024/02/06 05:44:06;;;;;;;7.20;5.90;;;11.30;99.90;;;;;;4995403;28;20241;-73
2024/02/06 05:46:32;;;;;;;6.47;5.40;;;11.40;99.90;;;;;;4968687;28;20219;-73
2024/02/06 05:48:57;;;;;;;9.73;4.63;;;11.40;99.90;;;;;;4988834;28;20188;-73
2024/02/06 05:51:23;;;;;;;5.80;4.83;;;11.30;99.90;;;;;;4974657;28;20651;-73
2024/02/06 05:53:49;;;;;;;7.57;5.00;;;11.40;99.90;;;;;;4980334;28;20421;-68
2024/02/06 05:56:15;;;;;;;5.50;4.50;;;11.50;99.90;;;;;;4994991;28;20186;-74
2024/02/06 05:58:42;;;;;;;8.33;5.93;;;11.50;99.90;;;;;;4978001;28;20184;-73
2024/02/06 06:01:08;;;;;;;7.27;6.57;;;11.50;99.90;;;;;;4993876;28;20621;-73
2024/02/06 06:03:35;;;;;;;9.20;6.87;;;11.50;99.90;;;;;;4993899;28;20531;-71
2024/02/06 06:06:00;;;;;;;7.90;5.90;;;11.50;99.90;;;;;;4994479;28;20504;-72
2024/02/06 06:08:26;;;;;;;7.77;4.67;;;11.40;99.90;;;;;;4995571;28;20451;-73
2024/02/06 06:10:52;;;;;;;9.10;5.87;;;11.40;99.90;;;;;;4993815;28;20234;-71
2024/02/06 06:13:18;;;;;;;5.33;4.83;;;11.40;99.90;;;;;;4994470;28;20176;-69
2024/02/06 06:15:45;;;;;;;7.10;4.90;;;11.40;99.90;;;;;;4994967;28;20184;-70
2024/02/06 06:18:11;;;;;;;8.03;5.80;;;11.30;99.90;;;;;;4994065;28;20467;-69
2024/02/06 06:20:37;;;;;;;5.33;4.83;;;11.20;99.90;;;;;;4977691;28;20422;-69
2024/02/06 06:23:03;;;;;;;6.67;5.37;;;11.20;99.90;;;;;;4990630;28;20518;-68
2024/02/06 06:25:30;;;;;;;7.13;5.57;;;11.30;99.90;;;;;;4995048;28;20600;-72
2024/02/06 06:27:55;;;;;;;7.47;6.13;;;11.40;99.90;;;;;;4994327;28;20456;-69
2024/02/06 06:30:23;;;;;;;7.77;6.10;;;11.40;99.90;;;;;;4995209;28;20495;-69
2024/02/06 06:32:49;;;;;;;6.17;5.60;;;11.30;99.90;;;;;;4993843;28;20180;-65
2024/02/06 06:35:15;;;;;;;13.33;6.20;;;11.30;99.90;;;;;;4993577;28;20438;-70
2024/02/06 06:37:40;;;;;;;6.10;4.90;;;11.30;99.90;;;;;;4995149;28;20423;-69
2024/02/06 06:40:07;;;;;;;6.20;5.40;;;11.20;99.90;;;;;;4994461;28;20267;-69
2024/02/06 06:42:34;;;;;;;7.27;5.20;;;11.30;99.90;;;;;;4977601;28;20267;-69
2024/02/06 06:45:00;;;;;;;6.07;5.33;;;11.30;99.90;;;;;;4994007;28;20574;-69
2024/02/06 06:47:25;;;;;;;7.20;5.50;;;11.30;99.90;;;;;;4977373;28;20516;-69
2024/02/06 06:49:51;;;;;;;7.10;5.23;;;11.30;99.90;;;;;;4994240;28;20175;-66
2024/02/06 06:52:17;;;;;;;7.93;6.37;;;11.30;99.90;;;;;;4994642;28;20173;-69
2024/02/06 06:54:42;;;;;;;8.80;5.80;;;11.30;99.90;;;;;;4994710;28;20180;-70
2024/02/06 06:57:08;;;;;;;8.37;5.73;;;11.30;99.90;;;;;;4993139;28;20179;-69
2024/02/06 06:59:34;;;;;;;6.53;5.53;;;11.20;99.90;;;;;;4976665;28;20213;-71
2024/02/06 07:02:00;;;;;;;10.27;6.00;;;11.30;99.90;;;;;;4993404;28;20186;-68
2024/02/06 07:04:26;;;;;;;7.27;5.97;;;11.30;99.90;;;;;;4973814;28;20195;-70
2024/02/06 07:06:52;;;;;;;9.70;5.60;;;11.30;99.90;;;;;;4974556;28;20452;-66
2024/02/06 07:09:20;;;;;;;7.17;6.27;;;11.30;99.90;;;;;;4983439;28;20418;-69
2024/02/06 07:11:46;;;;;;;8.30;6.43;;;11.30;99.90;;;;;;4993976;28;20912;-68
2024/02/06 07:14:12;;;;;;;7.67;5.80;;;11.30;99.90;;;;;;4993311;28;20433;-69
2024/02/06 07:16:38;;;;;;;6.20;5.60;;;11.30;99.90;;;;;;4993975;28;20412;-68
2024/02/06 07:19:04;;;;;;;5.90;5.40;;;11.30;99.90;;;;;;4993272;28;20627;-69
2024/02/06 07:21:29;;;;;;;7.63;6.83;;;11.40;99.90;;;;;;4993696;28;20184;-70
2024/02/06 07:23:55;;;;;;;8.10;6.70;;;11.40;99.90;;;;;;4993101;28;20180;-65
2024/02/06 07:26:21;;;;;;;7.10;5.77;;;11.50;99.90;;;;;;4994129;28;20274;-70
2024/02/06 07:28:47;;;;;;;10.63;6.13;;;11.50;99.90;;;;;;4991594;28;20617;-69
2024/02/06 07:31:13;;;;;;;9.43;6.60;;;11.60;99.90;;;;;;4991657;28;20271;-69
2024/02/06 07:33:43;;;;;;;9.33;5.67;;;11.60;99.90;;;;;;4993442;28;20917;-69
2024/02/06 07:36:09;;;;;;;7.17;6.57;;;11.60;99.90;;;;;;4975782;28;20395;-68
2024/02/06 07:38:35;;;;;;;7.90;5.43;;;11.50;99.90;;;;;;4993205;28;20516;-69
2024/02/06 07:41:02;;;;;;;6.93;6.13;;;11.50;99.90;;;;;;4993172;28;20510;-69
2024/02/06 07:43:32;;;;;;;8.00;6.17;;;11.50;99.90;;;;;;4993611;28;20404;-69
2024/02/06 07:45:57;;;;;;;10.27;6.70;;;11.50;99.90;;;;;;4993365;28;20412;-67
2024/02/06 07:48:23;;;;;;;8.17;6.37;;;11.40;99.90;;;;;;4993291;28;20488;-69
2024/02/06 07:50:49;;;;;;;9.57;6.50;;;11.50;99.90;;;;;;4976225;28;20240;-70
2024/02/06 07:53:16;;;;;;;7.40;6.70;;;11.40;99.90;;;;;;4992652;28;20258;-69
2024/02/06 07:55:42;;;;;;;8.60;7.10;;;11.30;99.90;;;;;;4993434;28;20263;-69
2024/02/06 07:58:08;;;;;;;7.87;7.10;;;11.40;99.90;;;;;;4974542;28;20486;-69
2024/02/06 08:00:35;;;;;;;8.83;6.43;;;11.40;99.90;;;;;;4993820;28;20419;-69
2024/02/06 08:03:01;;;;;;;8.03;6.40;;;11.30;99.90;;;;;;4992606;28;20190;-69
2024/02/06 08:05:28;;;;;;;12.43;9.00;;;11.30;99.90;;;;;;4976251;28;20414;-69
2024/02/06 08:07:54;;;;;;;8.83;5.67;;;11.30;99.90;;;;;;4992752;28;20574;-65
2024/02/06 08:10:20;;;;;;;10.57;7.77;;;11.30;99.90;;;;;;4975064;28;20438;-69
2024/02/06 08:12:46;;;;;;;9.10;7.50;;;11.30;99.90;;;;;;4993388;28;20501;-69
2024/02/06 08:15:12;;;;;;;9.57;7.00;;;11.30;99.90;;;;;;4991298;28;20459;-69
2024/02/06 08:17:46;;;;;;;7.90;6.50;;;11.30;99.90;;;;;;4974776;28;20469;-69
2024/02/06 08:20:13;;;;;;;8.77;7.00;;;11.30;99.90;;;;;;4992273;28;20783;-68
2024/02/06 08:22:39;;;;;;;9.50;6.63;;;11.30;99.90;;;;;;4994816;28;20423;-68
2024/02/06 08:25:09;;;;;;;7.93;5.80;;;11.30;99.90;;;;;;4991368;28;20435;-67
2024/02/06 08:27:36;;;;;;;11.60;5.87;;;11.30;99.90;;;;;;4992507;28;20504;-67
2024/02/06 08:30:07;;;;;;;7.20;5.40;;;11.40;99.90;;;;;;4991961;28;20419;-67
2024/02/06 08:32:33;;;;;;;6.80;5.90;;;11.40;99.90;;;;;;4992201;28;20522;-68
2024/02/06 08:34:59;;;;;;;7.37;6.30;;;11.50;99.90;;;;;;4991139;28;20509;-65
2024/02/06 08:37:24;;;;;;;6.50;5.80;;;11.50;99.90;;;;;;4992200;28;20186;-68
2024/02/06 08:39:50;;;;;;;6.37;5.77;;;11.60;99.90;;;;;;4991630;28;20505;-67
2024/02/06 08:42:17;;;;;;;6.90;6.20;;;11.50;99.90;;;;;;4991918;28;20191;-68
2024/02/06 08:44:43;;;;;;;10.60;6.00;;;11.60;99.90;;;;;;4973979;28;20652;-70
2024/02/06 08:47:09;;;;;;;6.63;5.60;;;11.50;99.90;;;;;;4990777;28;20554;-66
2024/02/06 08:49:34;;;;;;;6.13;5.63;;;11.60;99.90;;;;;;4992639;28;20453;-67
2024/02/06 08:52:00;;;;;;;10.30;6.17;;;11.90;99.90;;;;;;4992071;28;20412;-66
2024/02/06 08:54:26;;;;;;;8.10;6.27;;;12.10;99.90;;;;;;4992890;28;20170;-67
2024/02/06 08:56:52;;;;;;;9.63;6.27;;;12.30;99.90;;;;;;4992549;28;20231;-66
2024/02/06 08:59:18;;;;;;;7.73;6.80;;;12.50;99.90;;;;;;4989849;28;20262;-66
2024/02/06 09:01:44;;;;;;;7.67;6.83;;;12.80;99.90;;;;;;4988119;28;20537;-66
2024/02/06 09:04:09;;;;;;;6.23;5.63;;;13.00;99.90;;;;;;4991498;28;20536;-66
2024/02/06 09:06:35;;;;;;;7.00;5.80;;;13.10;99.90;;;;;;4992366;28;20421;-66
2024/02/06 09:09:03;;;;;;;5.77;5.30;;;13.20;99.90;;;;;;4990750;28;20640;-66
2024/02/06 09:11:30;;;;;;;10.40;7.03;;;13.30;99.90;;;;;;4992618;28;20766;-66
2024/02/06 09:13:56;;;;;;;5.73;5.23;;;13.40;99.90;;;;;;4992483;28;20426;-66
2024/02/06 09:16:22;;;;;;;7.00;6.00;;;13.40;99.90;;;;;;4990764;28;20440;-67
2024/02/06 09:18:52;;;;;;;10.70;6.00;;;13.30;99.90;;;;;;4991947;28;20219;-68
2024/02/06 09:21:19;;;;;;;8.73;5.83;;;13.10;99.90;;;;;;4971874;28;20448;-67
2024/02/06 09:23:45;;;;;;;11.03;5.70;;;12.90;99.90;;;;;;4988051;28;20841;-67
2024/02/06 09:26:15;;;;;;;13.70;5.37;;;12.80;99.90;;;;;;4990697;28;20753;-68
2024/02/06 09:28:42;;;;;;;13.00;6.00;;;12.60;99.90;;;;;;4991995;28;20469;-67
2024/02/06 09:31:09;;;;;;;5.73;5.27;;;12.40;99.90;;;;;;4991381;28;20419;-67
2024/02/06 09:33:34;;;;;;;8.70;6.63;;;12.40;99.90;;;;;;4991779;28;20438;-67
2024/02/06 09:36:02;;;;;;;12.87;6.80;;;12.30;99.90;;;;;;4991264;28;20920;-67
2024/02/06 09:38:28;;;;;;;9.53;5.97;;;12.30;99.90;;;;;;4991773;28;20198;-69
2024/02/06 09:40:54;;;;;;;8.10;6.10;;;12.30;99.90;;;;;;4992445;28;20472;-69
2024/02/06 09:43:21;;;;;;;5.80;4.90;;;12.10;99.90;;;;;;4991614;28;20179;-69
2024/02/06 09:45:48;;;;;;;6.90;5.57;;;12.10;99.90;;;;;;4993611;28;20503;-68
2024/02/06 09:48:14;;;;;;;9.17;5.77;;;12.10;99.90;;;;;;4995326;28;20460;-69
2024/02/06 09:50:40;;;;;;;5.90;5.03;;;12.10;99.90;;;;;;4996014;28;20420;-69
2024/02/06 09:53:09;;;;;;;6.57;5.67;;;12.10;99.90;;;;;;4995093;28;20412;-68
2024/02/06 09:55:40;;;;;;;9.97;6.83;;;12.10;99.90;;;;;;4994891;28;20427;-69
2024/02/06 09:58:10;;;;;;;9.80;5.40;;;12.10;99.90;;;;;;4995210;28;20405;-68
2024/02/06 10:00:40;;;;;;;6.87;6.20;;;12.00;99.90;;;;;;4995537;28;20431;-69
2024/02/06 10:03:13;;;;;;;8.00;4.90;;;12.00;99.90;;;;;;4994982;28;20409;-68
2024/02/06 10:05:43;;;;;;;5.33;4.10;;;12.00;99.90;;;;;;4977650;28;20942;-69
2024/02/06 10:08:13;;;;;;;5.23;4.33;;;12.00;99.90;;;;;;4994350;28;20934;-69
2024/02/06 10:10:45;;;;;;;6.03;5.30;;;12.00;99.90;;;;;;4996117;28;20758;-69
2024/02/06 10:13:11;;;;;;;6.60;5.03;;;12.00;99.90;;;;;;4976805;28;20411;-69
2024/02/06 10:15:37;;;;;;;8.10;5.20;;;12.00;99.90;;;;;;4994976;28;20635;-69
2024/02/06 10:18:04;;;;;;;4.93;4.50;;;12.00;99.90;;;;;;4993816;28;20466;-67
2024/02/06 10:20:43;;;;;;;6.97;4.77;;;12.00;99.90;;;;;;4995637;28;20905;-67
2024/02/06 10:23:19;;;;;;;8.97;5.70;;;12.00;99.90;;;;;;4977746;28;20802;-72
2024/02/06 10:25:50;;;;;;;5.73;5.13;;;11.90;99.90;;;;;;4977366;28;20456;-68
2024/02/06 10:28:23;;;;;;;7.07;5.10;;;11.90;99.90;;;;;;4977443;28;20855;-69
2024/02/06 10:30:50;;;;;;;7.13;5.47;;;11.90;99.90;;;;;;4977576;28;20407;-68
2024/02/06 10:33:16;;;;;;;7.23;5.80;;;11.90;99.90;;;;;;4960951;28;20421;-69
2024/02/06 10:35:43;;;;;;;8.87;5.43;;;12.00;99.90;;;;;;4983996;28;20997;-68
2024/02/06 10:38:12;;;;;;;6.93;6.00;;;12.00;99.90;;;;;;4994484;28;20504;-68
2024/02/06 10:40:40;;;;;;;8.03;6.67;;;11.90;99.90;;;;;;4994908;28;20423;-69
2024/02/06 10:43:06;;;;;;;8.17;6.33;;;11.90;99.90;;;;;;4991147;28;20903;-68
2024/02/06 10:45:31;;;;;;;10.43;6.23;;;11.90;99.90;;;;;;4994128;28;20425;-69
2024/02/06 10:48:02;;;;;;;6.47;5.97;;;11.90;99.90;;;;;;4994819;28;20636;-69
2024/02/06 10:50:29;;;;;;;7.40;6.00;;;11.90;99.90;;;;;;4994218;28;20236;-69
2024/02/06 10:52:55;;;;;;;7.27;6.10;;;11.90;99.90;;;;;;4994745;28;20423;-69
2024/02/06 10:55:22;;;;;;;7.17;5.93;;;11.90;99.90;;;;;;4993622;28;20410;-68
2024/02/06 10:57:51;;;;;;;10.83;5.63;;;12.00;99.90;;;;;;4993137;28;20843;-69
2024/02/06 11:00:21;;;;;;;6.60;5.17;;;12.00;99.90;;;;;;4992926;28;20432;-68
2024/02/06 11:02:56;;;;;;;7.33;6.10;;;11.90;99.90;;;;;;4994078;28;20423;-69
2024/02/06 11:05:27;;;;;;;8.53;5.10;;;11.90;99.90;;;;;;4993786;28;20475;-68
2024/02/06 11:08:15;;;;;;;7.63;5.70;;;11.90;99.90;;;;;;4993890;28;20531;-69
2024/02/06 11:10:44;;;;;;;6.27;5.77;;;11.90;99.90;;;;;;4994296;28;20489;-69
2024/02/06 11:13:36;;;;;;;7.43;5.40;;;12.00;99.90;;;;;;4994185;28;20416;-68
2024/02/06 11:16:03;;;;;;;6.83;5.90;;;12.00;99.90;;;;;;4969445;28;20422;-69
2024/02/06 11:19:00;;;;;;;9.13;6.50;;;11.90;99.90;;;;;;4993357;28;20473;-69
2024/02/06 11:21:29;;;;;;;10.87;6.20;;;11.90;99.90;;;;;;4990691;28;21007;-69
2024/02/06 11:23:57;;;;;;;6.00;5.50;;;12.00;99.90;;;;;;4994383;28;20821;-68
2024/02/06 11:26:22;;;;;;;8.03;5.77;;;11.90;99.90;;;;;;4991019;28;20405;-69
2024/02/06 11:28:50;;;;;;;7.90;7.17;;;11.90;99.90;;;;;;4971057;28;20969;-69
2024/02/06 11:31:16;;;;;;;7.80;7.00;;;12.00;99.90;;;;;;4992128;28;20426;-68
2024/02/06 11:33:42;;;;;;;8.77;6.50;;;12.00;99.90;;;;;;4976664;28;20404;-69
2024/02/06 11:36:20;;;;;;;9.93;8.00;;;12.00;99.90;;;;;;4993339;28;20500;-68
2024/02/06 11:38:46;;;;;;;9.40;6.67;;;12.00;99.90;;;;;;4994121;28;20187;-69
2024/02/06 11:41:16;;;;;;;11.90;8.10;;;12.10;99.90;;;;;;4992957;28;20923;-68
2024/02/06 11:43:42;;;;;;;7.37;6.00;;;12.10;99.90;;;;;;4994451;28;20172;-68
2024/02/06 11:46:08;;;;;;;9.00;7.00;;;12.10;99.90;;;;;;4993494;28;20416;-68
2024/02/06 11:48:34;;;;;;;6.90;6.20;;;12.10;99.90;;;;;;4993653;28;20458;-69
2024/02/06 11:51:00;;;;;;;10.47;7.13;;;12.10;99.90;;;;;;4993342;28;20196;-69
2024/02/06 11:53:27;;;;;;;8.87;7.10;;;12.10;99.90;;;;;;4992761;28;20666;-69
2024/02/06 11:56:02;;;;;;;8.83;7.90;;;12.10;99.90;;;;;;4976708;28;20176;-69
2024/02/06 11:58:28;;;;;;;6.70;6.10;;;12.10;99.90;;;;;;4993460;28;20438;-69
2024/02/06 12:00:58;;;;;;;9.50;6.33;;;12.00;99.90;;;;;;4993320;28;20461;-69
2024/02/06 12:03:24;;;;;;;11.90;7.10;;;12.00;99.90;;;;;;4993109;28;20399;-69
2024/02/06 12:05:50;;;;;;;11.13;8.20;;;11.90;99.90;;;;;;4993929;28;20463;-69
2024/02/06 12:08:20;;;;;;;7.47;6.87;;;12.00;99.90;;;;;;4991238;28;20547;-69
2024/02/06 12:10:47;;;;;;;8.83;7.30;;;12.00;99.90;;;;;;4993778;28;20269;-69
2024/02/06 12:13:13;;;;;;;8.33;7.23;;;12.00;99.90;;;;;;4991696;28;20433;-69
2024/02/06 12:15:40;;;;;;;7.37;6.60;;;11.90;99.90;;;;;;4992563;28;20434;-69
2024/02/06 12:18:08;;;;;;;9.17;8.30;;;11.90;99.90;;;;;;4993708;28;20451;-69
2024/02/06 12:20:35;;;;;;;7.57;6.77;;;11.90;99.90;;;;;;4993567;28;20485;-69
2024/02/06 12:23:06;;;;;;;11.17;7.90;;;11.90;99.90;;;;;;4975515;28;20563;-68
2024/02/06 12:25:40;;;;;;;7.77;7.07;;;11.90;99.90;;;;;;4992130;28;21007;-69
2024/02/06 12:28:12;;;;;;;7.87;6.57;;;11.90;99.90;;;;;;4959623;28;20519;-69
2024/02/06 12:30:40;;;;;;;8.60;6.97;;;11.90;99.90;;;;;;4993271;28;20436;-69
2024/02/06 12:33:06;;;;;;;10.10;7.70;;;11.80;99.90;;;;;;4993526;28;20548;-69
2024/02/06 12:35:34;;;;;;;12.47;7.67;;;11.90;99.90;;;;;;4975516;28;20484;-69
2024/02/06 12:38:01;;;;;;;11.53;6.80;;;12.00;99.90;;;;;;4992310;28;20185;-69
2024/02/06 12:40:31;;;;;;;7.73;6.93;;;11.90;99.90;;;;;;4974999;28;20616;-69
2024/02/06 12:43:10;;;;;;;9.00;7.23;;;11.80;99.90;;;;;;4993359;28;20439;-69